Terminal Aerodrome Forecast
Issued by NWS

Home | Current Version | Previous Version | Text Only | Print | Product List | Glossary On
Versions: 1 2 3 4 5 6 7 8 9 10 11 12 13 14 15 16 17
000
FTUS44 KLZK 181100
TAFLIT
TAF
KLIT 181120Z 1812/1912 09004KT P6SM VCSH SCT005 BKN035
      TEMPO 1812/1814 5SM -RADZ BR BKN015
     FM181400 08004KT 5SM -DZ BR BKN008 OVC012
      TEMPO 1814/1818 2SM -DZ BR OVC004
     FM181800 09004KT P6SM BKN015 OVC025
      TEMPO 1822/1902 5SM BR BKN008
     FM190200 05006KT 5SM -DZ BR BKN008 OVC015 PROB30 1906/1912 2SM
      -DZ BR OVC004=

USA.gov is the U.S. government's official web portal to all federal, state and local government web resources and services.